Date,TemperatureHighF,TemperatureAvgF,TemperatureLowF,DewpointHighF,DewpointAvgF,DewpointLowF,HumidityHigh,HumidityAvg,HumidityLow,PressureMaxIn,PressureMinIn,WindSpeedMaxMPH,WindSpeedAvgMPH,GustSpeedMaxMPH,PrecipitationSumIn
2012-12-1,55.9,38.3,32.2,50.2,36.0,30.1,95,92,80,30.26,29.88,10,6,13,0.01
2012-12-2,55.7,50.9,44.7,52.3,47.9,41.3,96,90,81,30.09,29.85,12,3,13,0.32
2012-12-3,61.5,51.5,39.5,58.1,49.5,37.5,97,93,87,30.09,29.76,10,3,14,0.00
2012-12-4,61.8,48.8,36.5,57.5,40.6,29.0,88,74,61,30.10,29.76,12,6,18,0.03
2012-12-5,36.3,31.2,27.1,28.9,23.1,20.5,82,72,59,30.40,30.10,13,6,18,0.00
2012-12-6,37.7,32.3,26.0,33.6,27.3,22.2,92,82,72,30.33,29.91,14,3,17,0.00
2012-12-7,45.6,40.7,37.8,40.2,37.0,33.7,92,87,77,29.94,29.89,8,2,11,0.01
2012-12-8,38.8,32.1,26.0,35.7,29.5,22.5,95,90,84,30.18,29.87,9,4,14,0.08
2012-12-9,33.2,30.3,27.7,31.0,27.7,24.9,95,90,85,30.21,29.66,15,5,17,0.00
2012-12-10,33.1,30.6,26.3,30.6,27.5,20.1,96,88,77,29.89,29.59,10,5,12,0.02
2012-12-11,33.4,27.2,20.3,28.9,22.2,16.6,89,81,72,30.08,29.87,8,2,10,0.01
2012-12-12,39.0,33.9,30.1,32.8,28.7,26.1,91,81,72,30.30,30.07,4,1,7,0.02
2012-12-13,43.0,35.2,30.0,31.6,27.8,25.0,82,74,62,30.30,30.08,3,2,6,0.01
2012-12-14,41.4,35.5,31.0,33.8,30.8,27.6,92,83,72,30.24,30.11,6,2,9,0.00
2012-12-15,42.0,36.3,31.3,40.7,34.2,29.5,95,92,87,30.16,29.61,13,7,16,0.29
2012-12-16,48.6,45.6,41.7,46.8,43.5,39.8,100,93,84,29.61,29.53,6,2,11,0.07
2012-12-17,41.6,39.2,33.4,39.7,35.4,30.2,93,86,79,29.70,29.61,8,2,11,0.00
2012-12-18,38.5,34.0,30.9,31.8,30.3,28.3,94,87,73,29.75,29.64,9,3,12,0.00
2012-12-19,38.3,34.4,31.6,35.9,32.7,30.1,95,93,89,30.11,29.74,6,1,7,0.04
2012-12-20,43.3,37.6,33.2,41.9,35.9,31.5,95,93,90,30.06,29.09,18,8,21,0.95
2012-12-21,39.1,32.5,28.6,36.4,28.4,24.4,94,85,74,29.91,29.13,21,14,31,0.08
2012-12-22,33.6,30.4,28.0,26.7,24.4,22.4,92,78,70,30.07,29.91,19,9,25,0.00
2012-12-23,31.9,27.4,24.0,26.9,22.8,18.6,90,83,72,30.05,29.86,10,4,12,0.00
2012-12-24,28.8,25.6,21.6,23.7,20.9,17.3,86,82,77,30.03,29.88,9,4,12,0.00
2012-12-25,31.2,25.6,21.8,22.0,20.2,17.8,91,80,62,30.36,30.04,10,4,11,0.00
2012-12-26,28.9,26.8,23.3,25.9,22.9,20.2,90,85,77,30.32,29.98,17,11,21,0.00
2012-12-27,28.8,24.5,21.8,21.9,19.9,17.6,95,83,69,30.17,29.98,11,5,13,0.00
2012-12-28,28.8,23.9,16.7,23.2,19.8,13.6,91,84,75,30.17,29.97,5,2,6,0.00
2012-12-29,29.9,25.8,21.9,25.0,21.9,17.8,92,85,77,30.06,29.85,11,4,14,0.00
2012-12-30,29.0,26.3,23.0,24.7,22.5,18.9,90,85,77,30.26,30.06,9,3,13,0.00
2012-12-31,35.4,28.6,23.3,29.8,23.6,16.4,87,81,70,30.11,29.87,12,5,16,0.00